sensor_id;sensor_type;location;lat;lon;timestamp;pressure;altitude;pressure_sealevel;temperature;humidity
9225;BME280;4647;48.072;11.616;2023-04-30T00:01:29;95445.53;;;10.95;73.22
9225;BME280;4647;48.072;11.616;2023-04-30T00:04:01;95446.03;;;10.86;73.60
9225;BME280;4647;48.072;11.616;2023-04-30T00:06:31;95451.69;;;10.68;74.31
9225;BME280;4647;48.072;11.616;2023-04-30T00:09:02;95441.69;;;10.62;74.77
9225;BME280;4647;48.072;11.616;2023-04-30T00:11:32;95441.25;;;10.67;74.36
9225;BME280;4647;48.072;11.616;2023-04-30T00:14:00;95446.13;;;10.49;75.03
9225;BME280;4647;48.072;11.616;2023-04-30T00:16:34;95452.38;;;10.42;75.38
9225;BME280;4647;48.072;11.616;2023-04-30T00:19:06;95456.44;;;10.23;76.35
9225;BME280;4647;48.072;11.616;2023-04-30T00:21:47;95453.56;;;10.37;75.83
9225;BME280;4647;48.072;11.616;2023-04-30T00:24:18;95459.16;;;10.20;76.65
9225;BME280;4647;48.072;11.616;2023-04-30T00:26:47;95447.03;;;10.35;75.66
9225;BME280;4647;48.072;11.616;2023-04-30T00:29:16;95459.88;;;10.27;76.52
9225;BME280;4647;48.072;11.616;2023-04-30T00:31:53;95453.94;;;10.39;75.74
9225;BME280;4647;48.072;11.616;2023-04-30T00:34:23;95462.09;;;10.36;75.90
9225;BME280;4647;48.072;11.616;2023-04-30T00:36:57;95457.88;;;10.35;75.70
9225;BME280;4647;48.072;11.616;2023-04-30T00:39:40;95455.19;;;10.31;75.78
9225;BME280;4647;48.072;11.616;2023-04-30T00:42:11;95452.13;;;10.29;76.17
9225;BME280;4647;48.072;11.616;2023-04-30T00:44:43;95462.22;;;10.25;76.57
9225;BME280;4647;48.072;11.616;2023-04-30T00:47:15;95449.41;;;10.29;76.57
9225;BME280;4647;48.072;11.616;2023-04-30T00:49:45;95452.38;;;10.42;76.19
9225;BME280;4647;48.072;11.616;2023-04-30T00:52:14;95460.63;;;10.31;76.78
9225;BME280;4647;48.072;11.616;2023-04-30T00:54:44;95464.00;;;10.42;76.46
9225;BME280;4647;48.072;11.616;2023-04-30T00:57:13;95467.75;;;10.11;77.25
9225;BME280;4647;48.072;11.616;2023-04-30T00:59:46;95463.81;;;10.23;77.12
9225;BME280;4647;48.072;11.616;2023-04-30T01:02:35;95458.00;;;10.17;77.04
9225;BME280;4647;48.072;11.616;2023-04-30T01:05:15;95464.28;;;10.10;77.33
9225;BME280;4647;48.072;11.616;2023-04-30T01:07:47;95459.19;;;10.16;77.08
9225;BME280;4647;48.072;11.616;2023-04-30T01:10:19;95455.72;;;10.15;77.07
9225;BME280;4647;48.072;11.616;2023-04-30T01:13:11;95460.88;;;10.03;77.78
9225;BME280;4647;48.072;11.616;2023-04-30T01:16:10;95472.88;;;10.02;77.47
9225;BME280;4647;48.072;11.616;2023-04-30T01:19:04;95471.63;;;10.10;77.26
9225;BME280;4647;48.072;11.616;2023-04-30T01:21:45;95464.22;;;10.14;76.89
9225;BME280;4647;48.072;11.616;2023-04-30T01:24:41;95476.97;;;10.17;76.63
9225;BME280;4647;48.072;11.616;2023-04-30T01:27:23;95473.25;;;10.04;77.17
9225;BME280;4647;48.072;11.616;2023-04-30T01:30:25;95477.50;;;10.01;77.38
9225;BME280;4647;48.072;11.616;2023-04-30T01:32:55;95471.63;;;10.10;77.14
9225;BME280;4647;48.072;11.616;2023-04-30T01:35:52;95472.53;;;9.96;77.44
9225;BME280;4647;48.072;11.616;2023-04-30T01:38:58;95471.78;;;9.96;77.55
9225;BME280;4647;48.072;11.616;2023-04-30T01:41:35;95469.41;;;10.01;77.36
9225;BME280;4647;48.072;11.616;2023-04-30T01:44:35;95482.44;;;10.10;77.11
9225;BME280;4647;48.072;11.616;2023-04-30T01:47:35;95469.91;;;9.85;77.75
9225;BME280;4647;48.072;11.616;2023-04-30T01:50:23;95473.72;;;9.92;77.92
9225;BME280;4647;48.072;11.616;2023-04-30T01:53:03;95485.03;;;9.79;78.61
9225;BME280;4647;48.072;11.616;2023-04-30T01:56:15;95482.69;;;9.85;78.22
9225;BME280;4647;48.072;11.616;2023-04-30T01:59:09;95479.56;;;9.87;78.45
9225;BME280;4647;48.072;11.616;2023-04-30T02:01:42;95478.38;;;9.91;77.99
9225;BME280;4647;48.072;11.616;2023-04-30T02:06:56;95480.91;;;9.64;79.14
9225;BME280;4647;48.072;11.616;2023-04-30T02:09:25;95472.22;;;9.87;78.13
9225;BME280;4647;48.072;11.616;2023-04-30T02:12:20;95480.41;;;9.80;78.34
9225;BME280;4647;48.072;11.616;2023-04-30T02:14:49;95474.59;;;9.81;78.45
9225;BME280;4647;48.072;11.616;2023-04-30T02:17:21;95478.91;;;9.75;78.79
9225;BME280;4647;48.072;11.616;2023-04-30T02:20:07;95485.06;;;9.76;78.16
9225;BME280;4647;48.072;11.616;2023-04-30T02:22:39;95481.66;;;9.65;78.66
9225;BME280;4647;48.072;11.616;2023-04-30T02:25:27;95484.75;;;9.70;78.21
9225;BME280;4647;48.072;11.616;2023-04-30T02:28:07;95485.13;;;9.72;78.56
9225;BME280;4647;48.072;11.616;2023-04-30T02:30:46;95486.28;;;9.68;78.34
9225;BME280;4647;48.072;11.616;2023-04-30T02:33:36;95475.25;;;9.44;78.82
9225;BME280;4647;48.072;11.616;2023-04-30T02:36:09;95481.75;;;9.54;78.51
9225;BME280;4647;48.072;11.616;2023-04-30T02:38:43;95500.69;;;9.54;78.76
9225;BME280;4647;48.072;11.616;2023-04-30T02:41:14;95499.09;;;9.60;79.14
9225;BME280;4647;48.072;11.616;2023-04-30T02:43:50;95497.13;;;9.64;78.61
9225;BME280;4647;48.072;11.616;2023-04-30T02:46:25;95495.91;;;9.76;78.19
9225;BME280;4647;48.072;11.616;2023-04-30T02:52:34;95486.00;;;9.55;78.45
9225;BME280;4647;48.072;11.616;2023-04-30T02:55:07;95493.63;;;9.67;78.29
9225;BME280;4647;48.072;11.616;2023-04-30T02:57:40;95487.44;;;9.70;78.33
9225;BME280;4647;48.072;11.616;2023-04-30T03:00:12;95475.69;;;9.39;78.55
9225;BME280;4647;48.072;11.616;2023-04-30T03:02:42;95501.81;;;9.60;78.88
9225;BME280;4647;48.072;11.616;2023-04-30T03:05:11;95509.16;;;9.60;78.60
9225;BME280;4647;48.072;11.616;2023-04-30T03:07:43;95509.59;;;9.51;78.89
9225;BME280;4647;48.072;11.616;2023-04-30T03:10:11;95517.72;;;9.51;78.76
9225;BME280;4647;48.072;11.616;2023-04-30T03:12:40;95502.28;;;9.48;79.23
9225;BME280;4647;48.072;11.616;2023-04-30T03:15:10;95496.91;;;9.41;78.95
9225;BME280;4647;48.072;11.616;2023-04-30T03:17:39;95496.97;;;9.34;79.45
9225;BME280;4647;48.072;11.616;2023-04-30T03:20:09;95491.16;;;9.35;79.29
9225;BME280;4647;48.072;11.616;2023-04-30T03:22:40;95495.38;;;9.40;79.48
9225;BME280;4647;48.072;11.616;2023-04-30T03:25:18;95491.06;;;9.49;78.92
9225;BME280;4647;48.072;11.616;2023-04-30T03:27:57;95499.25;;;9.39;79.50
9225;BME280;4647;48.072;11.616;2023-04-30T03:30:29;95493.09;;;9.35;79.04
9225;BME280;4647;48.072;11.616;2023-04-30T03:32:57;95472.31;;;9.21;79.17
9225;BME280;4647;48.072;11.616;2023-04-30T03:35:27;95471.94;;;9.19;79.61
9225;BME280;4647;48.072;11.616;2023-04-30T03:37:56;95491.31;;;9.10;80.11
9225;BME280;4647;48.072;11.616;2023-04-30T03:40:28;95475.41;;;9.19;80.02
9225;BME280;4647;48.072;11.616;2023-04-30T03:42:57;95467.09;;;8.89;79.98
9225;BME280;4647;48.072;11.616;2023-04-30T03:45:26;95474.00;;;8.97;80.21
9225;BME280;4647;48.072;11.616;2023-04-30T03:47:55;95473.28;;;8.86;80.87
9225;BME280;4647;48.072;11.616;2023-04-30T03:50:26;95474.94;;;8.58;82.28
9225;BME280;4647;48.072;11.616;2023-04-30T03:52:55;95474.94;;;8.58;82.25
9225;BME280;4647;48.072;11.616;2023-04-30T03:55:24;95470.28;;;8.66;81.80
9225;BME280;4647;48.072;11.616;2023-04-30T03:57:56;95470.34;;;8.55;82.10
9225;BME280;4647;48.072;11.616;2023-04-30T04:00:25;95465.72;;;8.45;82.86
9225;BME280;4647;48.072;11.616;2023-04-30T04:02:56;95473.44;;;8.47;82.93
9225;BME280;4647;48.072;11.616;2023-04-30T04:05:28;95459.97;;;8.36;83.21
9225;BME280;4647;48.072;11.616;2023-04-30T04:08:09;95478.84;;;8.47;83.42
9225;BME280;4647;48.072;11.616;2023-04-30T04:10:38;95458.44;;;8.35;83.34
9225;BME280;4647;48.072;11.616;2023-04-30T04:13:11;95483.03;;;8.58;82.52
9225;BME280;4647;48.072;11.616;2023-04-30T04:15:40;95446.84;;;8.38;82.42
9225;BME280;4647;48.072;11.616;2023-04-30T04:18:09;95478.75;;;8.72;81.85
9225;BME280;4647;48.072;11.616;2023-04-30T04:20:38;95487.53;;;8.90;81.47
9225;BME280;4647;48.072;11.616;2023-04-30T04:23:15;95491.03;;;8.87;81.18
9225;BME280;4647;48.072;11.616;2023-04-30T04:25:47;95494.03;;;9.07;80.84
9225;BME280;4647;48.072;11.616;2023-04-30T04:28:21;95494.31;;;9.27;79.99
9225;BME280;4647;48.072;11.616;2023-04-30T04:30:51;95497.38;;;9.29;79.58
9225;BME280;4647;48.072;11.616;2023-04-30T04:33:25;95506.69;;;9.20;79.87
9225;BME280;4647;48.072;11.616;2023-04-30T04:35:57;95493.16;;;9.24;79.27
9225;BME280;4647;48.072;11.616;2023-04-30T04:38:26;95500.47;;;9.31;78.83
9225;BME280;4647;48.072;11.616;2023-04-30T04:40:55;95502.31;;;9.41;78.58
9225;BME280;4647;48.072;11.616;2023-04-30T04:43:30;95505.41;;;9.43;78.33
9225;BME280;4647;48.072;11.616;2023-04-30T04:46:01;95505.69;;;9.59;77.90
9225;BME280;4647;48.072;11.616;2023-04-30T04:48:31;95509.22;;;9.52;78.16
9225;BME280;4647;48.072;11.616;2023-04-30T04:51:01;95511.81;;;9.63;77.82
9225;BME280;4647;48.072;11.616;2023-04-30T04:56:29;95501.84;;;9.57;77.70
9225;BME280;4647;48.072;11.616;2023-04-30T04:59:11;95511.09;;;9.59;77.49
9225;BME280;4647;48.072;11.616;2023-04-30T05:01:43;95504.44;;;9.71;76.82
9225;BME280;4647;48.072;11.616;2023-04-30T05:04:12;95520.50;;;9.92;76.20
9225;BME280;4647;48.072;11.616;2023-04-30T05:06:44;95510.31;;;10.07;75.53
9225;BME280;4647;48.072;11.616;2023-04-30T05:09:26;95502.59;;;10.05;74.87
9225;BME280;4647;48.072;11.616;2023-04-30T05:12:04;95514.94;;;10.10;74.91
9225;BME280;4647;48.072;11.616;2023-04-30T05:14:36;95524.63;;;10.07;75.02
9225;BME280;4647;48.072;11.616;2023-04-30T05:17:05;95529.69;;;10.05;74.70
9225;BME280;4647;48.072;11.616;2023-04-30T05:19:34;95530.56;;;9.92;75.41
9225;BME280;4647;48.072;11.616;2023-04-30T05:22:03;95529.16;;;9.73;75.96
9225;BME280;4647;48.072;11.616;2023-04-30T05:24:34;95522.03;;;9.97;75.27
9225;BME280;4647;48.072;11.616;2023-04-30T05:27:03;95527.38;;;10.04;74.85
9225;BME280;4647;48.072;11.616;2023-04-30T05:29:32;95529.97;;;10.18;74.35
9225;BME280;4647;48.072;11.616;2023-04-30T05:32:28;95529.56;;;10.20;74.43
9225;BME280;4647;48.072;11.616;2023-04-30T05:35:02;95541.06;;;10.34;73.55
9225;BME280;4647;48.072;11.616;2023-04-30T05:37:48;95539.81;;;9.98;74.20
9225;BME280;4647;48.072;11.616;2023-04-30T05:40:22;95526.56;;;10.07;74.74
9225;BME280;4647;48.072;11.616;2023-04-30T05:42:53;95529.00;;;10.42;73.22
9225;BME280;4647;48.072;11.616;2023-04-30T05:45:22;95524.31;;;10.47;72.88
9225;BME280;4647;48.072;11.616;2023-04-30T05:47:54;95533.72;;;10.31;73.29
9225;BME280;4647;48.072;11.616;2023-04-30T05:50:22;95520.13;;;10.38;72.94
9225;BME280;4647;48.072;11.616;2023-04-30T05:52:52;95532.75;;;10.52;72.63
9225;BME280;4647;48.072;11.616;2023-04-30T05:55:21;95520.06;;;10.45;72.74
9225;BME280;4647;48.072;11.616;2023-04-30T05:57:49;95525.09;;;10.81;71.80
9225;BME280;4647;48.072;11.616;2023-04-30T06:00:18;95521.81;;;10.97;71.36
9225;BME280;4647;48.072;11.616;2023-04-30T06:02:49;95530.94;;;10.38;72.68
9225;BME280;4647;48.072;11.616;2023-04-30T06:05:21;95521.44;;;10.16;73.98
9225;BME280;4647;48.072;11.616;2023-04-30T06:07:51;95527.59;;;10.65;72.78
9225;BME280;4647;48.072;11.616;2023-04-30T06:10:30;95521.53;;;10.88;71.37
9225;BME280;4647;48.072;11.616;2023-04-30T06:13:00;95529.28;;;10.89;70.95
9225;BME280;4647;48.072;11.616;2023-04-30T06:15:29;95531.09;;;10.62;71.91
9225;BME280;4647;48.072;11.616;2023-04-30T06:17:59;95539.66;;;10.57;72.21
9225;BME280;4647;48.072;11.616;2023-04-30T06:20:39;95528.22;;;11.10;70.08
9225;BME280;4647;48.072;11.616;2023-04-30T06:23:10;95521.63;;;11.42;68.90
9225;BME280;4647;48.072;11.616;2023-04-30T06:25:43;95521.88;;;11.51;69.04
9225;BME280;4647;48.072;11.616;2023-04-30T06:28:19;95533.00;;;11.60;68.49
9225;BME280;4647;48.072;11.616;2023-04-30T06:31:01;95517.25;;;11.75;67.48
9225;BME280;4647;48.072;11.616;2023-04-30T06:33:32;95515.44;;;11.68;67.40
9225;BME280;4647;48.072;11.616;2023-04-30T06:36:08;95524.00;;;11.93;66.85
9225;BME280;4647;48.072;11.616;2023-04-30T06:38:46;95525.53;;;12.18;66.94
9225;BME280;4647;48.072;11.616;2023-04-30T06:41:17;95519.19;;;12.24;64.70
9225;BME280;4647;48.072;11.616;2023-04-30T06:43:49;95519.91;;;12.05;65.22
9225;BME280;4647;48.072;11.616;2023-04-30T06:46:18;95517.16;;;12.52;64.53
9225;BME280;4647;48.072;11.616;2023-04-30T06:49:02;95506.91;;;12.83;63.48
9225;BME280;4647;48.072;11.616;2023-04-30T06:51:36;95521.44;;;12.93;62.55
9225;BME280;4647;48.072;11.616;2023-04-30T06:54:06;95524.94;;;12.93;62.95
9225;BME280;4647;48.072;11.616;2023-04-30T06:56:39;95520.00;;;13.28;62.53
9225;BME280;4647;48.072;11.616;2023-04-30T06:59:19;95515.59;;;13.14;61.43
9225;BME280;4647;48.072;11.616;2023-04-30T07:01:58;95516.66;;;13.20;61.72
9225;BME280;4647;48.072;11.616;2023-04-30T07:04:27;95502.28;;;13.19;61.58
9225;BME280;4647;48.072;11.616;2023-04-30T07:07:07;95517.91;;;13.35;61.34
9225;BME280;4647;48.072;11.616;2023-04-30T07:09:37;95520.50;;;13.59;60.36
9225;BME280;4647;48.072;11.616;2023-04-30T07:12:17;95514.25;;;13.42;61.13
9225;BME280;4647;48.072;11.616;2023-04-30T07:14:46;95522.78;;;13.60;60.93
9225;BME280;4647;48.072;11.616;2023-04-30T07:17:39;95517.09;;;13.71;60.61
9225;BME280;4647;48.072;11.616;2023-04-30T07:20:11;95515.66;;;13.66;60.19
9225;BME280;4647;48.072;11.616;2023-04-30T07:22:57;95516.41;;;13.67;60.42
9225;BME280;4647;48.072;11.616;2023-04-30T07:25:27;95519.59;;;13.81;60.31
9225;BME280;4647;48.072;11.616;2023-04-30T07:27:57;95522.22;;;14.18;59.73
9225;BME280;4647;48.072;11.616;2023-04-30T07:30:26;95513.97;;;14.21;58.24
9225;BME280;4647;48.072;11.616;2023-04-30T07:32:59;95522.16;;;14.05;58.42
9225;BME280;4647;48.072;11.616;2023-04-30T07:35:28;95519.75;;;14.07;60.08
9225;BME280;4647;48.072;11.616;2023-04-30T07:38:00;95518.09;;;14.42;58.13
9225;BME280;4647;48.072;11.616;2023-04-30T07:40:30;95518.56;;;14.24;58.40
9225;BME280;4647;48.072;11.616;2023-04-30T07:43:01;95513.81;;;14.45;58.24
9225;BME280;4647;48.072;11.616;2023-04-30T07:45:32;95516.75;;;14.34;57.99
9225;BME280;4647;48.072;11.616;2023-04-30T07:48:12;95511.22;;;14.37;58.35
9225;BME280;4647;48.072;11.616;2023-04-30T07:50:59;95511.22;;;14.37;58.34
9225;BME280;4647;48.072;11.616;2023-04-30T07:53:32;95505.81;;;14.21;58.88
9225;BME280;4647;48.072;11.616;2023-04-30T07:56:01;95510.88;;;14.35;58.05
9225;BME280;4647;48.072;11.616;2023-04-30T07:58:30;95503.94;;;14.63;57.30
9225;BME280;4647;48.072;11.616;2023-04-30T08:00:59;95511.47;;;14.59;57.01
9225;BME280;4647;48.072;11.616;2023-04-30T08:03:28;95506.16;;;14.68;57.28
9225;BME280;4647;48.072;11.616;2023-04-30T08:05:59;95504.75;;;15.05;55.99
9225;BME280;4647;48.072;11.616;2023-04-30T08:08:33;95504.97;;;15.11;56.44
9225;BME280;4647;48.072;11.616;2023-04-30T08:11:04;95511.31;;;15.08;56.13
9225;BME280;4647;48.072;11.616;2023-04-30T08:13:35;95505.34;;;15.26;55.28
9225;BME280;4647;48.072;11.616;2023-04-30T08:16:10;95509.44;;;15.05;55.69
9225;BME280;4647;48.072;11.616;2023-04-30T08:18:42;95508.59;;;14.50;57.69
9225;BME280;4647;48.072;11.616;2023-04-30T08:21:27;95507.41;;;14.19;58.16
9225;BME280;4647;48.072;11.616;2023-04-30T08:23:59;95508.94;;;13.55;60.67
9225;BME280;4647;48.072;11.616;2023-04-30T08:26:30;95505.28;;;13.77;60.81
9225;BME280;4647;48.072;11.616;2023-04-30T08:28:58;95501.03;;;14.09;59.37
9225;BME280;4647;48.072;11.616;2023-04-30T08:31:29;95504.09;;;13.95;59.65
9225;BME280;4647;48.072;11.616;2023-04-30T08:34:02;95491.16;;;14.15;59.00
9225;BME280;4647;48.072;11.616;2023-04-30T08:36:47;95497.44;;;14.12;58.91
9225;BME280;4647;48.072;11.616;2023-04-30T08:39:18;95497.34;;;14.48;57.74
9225;BME280;4647;48.072;11.616;2023-04-30T08:41:50;95503.66;;;14.29;57.93
9225;BME280;4647;48.072;11.616;2023-04-30T08:44:21;95505.66;;;14.57;57.98
9225;BME280;4647;48.072;11.616;2023-04-30T08:46:52;95503.72;;;14.41;58.17
9225;BME280;4647;48.072;11.616;2023-04-30T08:49:24;95503.50;;;13.87;58.48
9225;BME280;4647;48.072;11.616;2023-04-30T08:52:09;95501.13;;;14.05;58.79
9225;BME280;4647;48.072;11.616;2023-04-30T08:54:42;95501.38;;;13.78;60.54
9225;BME280;4647;48.072;11.616;2023-04-30T08:57:14;95508.09;;;14.06;60.04
9225;BME280;4647;48.072;11.616;2023-04-30T08:59:45;95506.16;;;14.68;57.39
9225;BME280;4647;48.072;11.616;2023-04-30T09:02:32;95506.97;;;14.53;58.14
9225;BME280;4647;48.072;11.616;2023-04-30T09:05:06;95510.13;;;15.22;56.74
9225;BME280;4647;48.072;11.616;2023-04-30T09:07:39;95514.59;;;15.70;54.75
9225;BME280;4647;48.072;11.616;2023-04-30T09:10:30;95512.25;;;16.07;54.22
9225;BME280;4647;48.072;11.616;2023-04-30T09:13:02;95510.44;;;15.65;55.07
9225;BME280;4647;48.072;11.616;2023-04-30T09:15:34;95514.19;;;15.17;56.52
9225;BME280;4647;48.072;11.616;2023-04-30T09:18:15;95522.13;;;14.83;56.52
9225;BME280;4647;48.072;11.616;2023-04-30T09:20:58;95518.63;;;14.37;58.61
9225;BME280;4647;48.072;11.616;2023-04-30T09:23:35;95517.31;;;14.45;57.85
9225;BME280;4647;48.072;11.616;2023-04-30T09:26:07;95513.59;;;14.68;57.31
9225;BME280;4647;48.072;11.616;2023-04-30T09:28:53;95513.31;;;15.33;55.55
9225;BME280;4647;48.072;11.616;2023-04-30T09:31:24;95518.13;;;15.29;55.92
9225;BME280;4647;48.072;11.616;2023-04-30T09:33:55;95517.41;;;15.12;55.28
9225;BME280;4647;48.072;11.616;2023-04-30T09:36:24;95509.03;;;14.78;55.63
9225;BME280;4647;48.072;11.616;2023-04-30T09:38:53;95525.28;;;14.52;57.21
9225;BME280;4647;48.072;11.616;2023-04-30T09:41:26;95503.31;;;14.10;57.87
9225;BME280;4647;48.072;11.616;2023-04-30T09:43:56;95513.88;;;14.25;57.87
9225;BME280;4647;48.072;11.616;2023-04-30T09:46:30;95516.63;;;13.76;58.08
9225;BME280;4647;48.072;11.616;2023-04-30T09:49:05;95518.38;;;14.31;57.92
9225;BME280;4647;48.072;11.616;2023-04-30T09:52:07;95523.94;;;14.44;57.33
9225;BME280;4647;48.072;11.616;2023-04-30T09:54:45;95511.44;;;14.76;56.19
9225;BME280;4647;48.072;11.616;2023-04-30T09:57:26;95514.94;;;14.60;56.79
9225;BME280;4647;48.072;11.616;2023-04-30T10:00:12;95506.25;;;14.65;57.88
9225;BME280;4647;48.072;11.616;2023-04-30T10:03:01;95509.06;;;15.57;54.92
9225;BME280;4647;48.072;11.616;2023-04-30T10:05:38;95511.16;;;16.04;51.21
9225;BME280;4647;48.072;11.616;2023-04-30T10:08:21;95509.63;;;16.03;51.52
9225;BME280;4647;48.072;11.616;2023-04-30T10:10:57;95503.97;;;16.57;49.64
9225;BME280;4647;48.072;11.616;2023-04-30T10:13:41;95504.38;;;16.56;49.54
9225;BME280;4647;48.072;11.616;2023-04-30T10:16:14;95507.25;;;15.92;51.80
9225;BME280;4647;48.072;11.616;2023-04-30T10:18:49;95499.63;;;15.75;52.67
9225;BME280;4647;48.072;11.616;2023-04-30T10:21:21;95503.75;;;15.79;51.90
9225;BME280;4647;48.072;11.616;2023-04-30T10:23:57;95491.41;;;15.75;52.39
9225;BME280;4647;48.072;11.616;2023-04-30T10:26:40;95487.34;;;16.05;50.70
9225;BME280;4647;48.072;11.616;2023-04-30T10:29:12;95489.84;;;16.12;50.55
9225;BME280;4647;48.072;11.616;2023-04-30T10:31:46;95484.38;;;15.35;51.91
9225;BME280;4647;48.072;11.616;2023-04-30T10:34:24;95479.94;;;15.92;52.37
9225;BME280;4647;48.072;11.616;2023-04-30T10:37:01;95488.00;;;15.58;53.16
9225;BME280;4647;48.072;11.616;2023-04-30T10:39:32;95484.41;;;15.48;52.58
9225;BME280;4647;48.072;11.616;2023-04-30T10:42:06;95477.78;;;14.95;53.99
9225;BME280;4647;48.072;11.616;2023-04-30T10:44:40;95484.09;;;14.92;54.57
9225;BME280;4647;48.072;11.616;2023-04-30T10:47:11;95475.41;;;15.22;53.63
9225;BME280;4647;48.072;11.616;2023-04-30T10:49:50;95476.09;;;15.52;52.24
9225;BME280;4647;48.072;11.616;2023-04-30T10:52:27;95459.59;;;15.93;52.07
9225;BME280;4647;48.072;11.616;2023-04-30T10:55:03;95469.53;;;16.82;50.62
9225;BME280;4647;48.072;11.616;2023-04-30T10:57:44;95463.19;;;16.94;49.81
9225;BME280;4647;48.072;11.616;2023-04-30T11:00:30;95463.78;;;16.54;50.41
9225;BME280;4647;48.072;11.616;2023-04-30T11:03:02;95448.78;;;16.37;50.50
9225;BME280;4647;48.072;11.616;2023-04-30T11:05:37;95452.38;;;16.00;51.09
9225;BME280;4647;48.072;11.616;2023-04-30T11:08:16;95446.13;;;15.99;51.57
9225;BME280;4647;48.072;11.616;2023-04-30T11:10:59;95454.56;;;15.92;50.59
9225;BME280;4647;48.072;11.616;2023-04-30T11:13:41;95453.38;;;15.55;51.30
9225;BME280;4647;48.072;11.616;2023-04-30T11:16:15;95446.81;;;15.52;52.29
9225;BME280;4647;48.072;11.616;2023-04-30T11:18:50;95450.97;;;15.31;52.56
9225;BME280;4647;48.072;11.616;2023-04-30T11:21:20;95447.50;;;15.44;51.50
9225;BME280;4647;48.072;11.616;2023-04-30T11:23:50;95447.78;;;16.09;50.17
9225;BME280;4647;48.072;11.616;2023-04-30T11:26:21;95449.41;;;16.07;50.68
9225;BME280;4647;48.072;11.616;2023-04-30T11:28:52;95449.44;;;15.56;52.34
9225;BME280;4647;48.072;11.616;2023-04-30T11:31:44;95450.91;;;16.20;49.88
9225;BME280;4647;48.072;11.616;2023-04-30T11:34:32;95452.50;;;15.32;51.09
9225;BME280;4647;48.072;11.616;2023-04-30T11:37:45;95437.31;;;15.31;52.42
9225;BME280;4647;48.072;11.616;2023-04-30T11:40:45;95448.91;;;15.74;51.12
9225;BME280;4647;48.072;11.616;2023-04-30T11:43:21;95434.78;;;15.37;51.35
9225;BME280;4647;48.072;11.616;2023-04-30T11:46:15;95433.28;;;15.36;51.20
9225;BME280;4647;48.072;11.616;2023-04-30T11:48:50;95447.78;;;15.96;51.01
9225;BME280;4647;48.072;11.616;2023-04-30T11:51:24;95443.81;;;15.63;51.13
9225;BME280;4647;48.072;11.616;2023-04-30T11:53:54;95447.47;;;15.82;50.06
9225;BME280;4647;48.072;11.616;2023-04-30T11:56:24;95436.06;;;14.82;51.79
9225;BME280;4647;48.072;11.616;2023-04-30T11:58:55;95446.53;;;14.83;52.89
9225;BME280;4647;48.072;11.616;2023-04-30T12:01:28;95442.53;;;15.13;52.46
9225;BME280;4647;48.072;11.616;2023-04-30T12:04:06;95426.81;;;14.92;52.66
9225;BME280;4647;48.072;11.616;2023-04-30T12:06:36;95444.03;;;14.89;53.03
9225;BME280;4647;48.072;11.616;2023-04-30T12:09:06;95439.94;;;15.35;51.47
9225;BME280;4647;48.072;11.616;2023-04-30T12:11:38;95437.44;;;15.79;50.50
9225;BME280;4647;48.072;11.616;2023-04-30T12:14:10;95432.97;;;15.72;50.63
9225;BME280;4647;48.072;11.616;2023-04-30T12:16:41;95433.38;;;15.07;51.58
9225;BME280;4647;48.072;11.616;2023-04-30T12:19:19;95429.78;;;15.61;50.16
9225;BME280;4647;48.072;11.616;2023-04-30T12:21:52;95434.88;;;15.97;50.13
9225;BME280;4647;48.072;11.616;2023-04-30T12:24:28;95429.16;;;16.17;49.06
9225;BME280;4647;48.072;11.616;2023-04-30T12:27:00;95430.03;;;16.14;48.78
9225;BME280;4647;48.072;11.616;2023-04-30T12:29:29;95424.69;;;16.10;48.94
9225;BME280;4647;48.072;11.616;2023-04-30T12:31:58;95422.44;;;15.83;49.72
9225;BME280;4647;48.072;11.616;2023-04-30T12:34:30;95420.91;;;16.51;47.56
9225;BME280;4647;48.072;11.616;2023-04-30T12:37:06;95417.63;;;16.56;47.36
9225;BME280;4647;48.072;11.616;2023-04-30T12:39:41;95413.22;;;17.03;46.30
9225;BME280;4647;48.072;11.616;2023-04-30T12:42:12;95414.13;;;16.78;47.11
9225;BME280;4647;48.072;11.616;2023-04-30T12:44:47;95416.50;;;17.19;46.38
9225;BME280;4647;48.072;11.616;2023-04-30T12:47:17;95413.41;;;17.48;46.05
9225;BME280;4647;48.072;11.616;2023-04-30T12:49:48;95411.09;;;17.29;46.38
9225;BME280;4647;48.072;11.616;2023-04-30T12:52:22;95408.75;;;16.52;47.97
9225;BME280;4647;48.072;11.616;2023-04-30T12:54:52;95399.59;;;15.90;48.42
9225;BME280;4647;48.072;11.616;2023-04-30T12:57:21;95395.13;;;15.83;49.15
9225;BME280;4647;48.072;11.616;2023-04-30T12:59:57;95397.19;;;15.92;49.09
9225;BME280;4647;48.072;11.616;2023-04-30T13:02:29;95392.72;;;16.20;48.79
9225;BME280;4647;48.072;11.616;2023-04-30T13:05:00;95400.16;;;15.85;49.11
9225;BME280;4647;48.072;11.616;2023-04-30T13:07:36;95391.91;;;16.32;48.30
9225;BME280;4647;48.072;11.616;2023-04-30T13:10:11;95390.78;;;16.64;47.16
9225;BME280;4647;48.072;11.616;2023-04-30T13:12:43;95380.59;;;15.86;48.07
9225;BME280;4647;48.072;11.616;2023-04-30T13:15:12;95375.03;;;15.77;49.42
9225;BME280;4647;48.072;11.616;2023-04-30T13:17:41;95379.13;;;16.29;47.39
9225;BME280;4647;48.072;11.616;2023-04-30T13:20:14;95374.06;;;16.62;48.20
9225;BME280;4647;48.072;11.616;2023-04-30T13:22:45;95368.91;;;16.86;46.44
9225;BME280;4647;48.072;11.616;2023-04-30T13:25:24;95370.94;;;16.51;47.66
9225;BME280;4647;48.072;11.616;2023-04-30T13:27:55;95368.28;;;15.69;49.01
9225;BME280;4647;48.072;11.616;2023-04-30T13:30:24;95373.22;;;15.61;48.36
9225;BME280;4647;48.072;11.616;2023-04-30T13:32:55;95361.25;;;16.15;47.84
9225;BME280;4647;48.072;11.616;2023-04-30T13:35:33;95358.72;;;16.21;47.71
9225;BME280;4647;48.072;11.616;2023-04-30T13:38:04;95355.31;;;15.95;47.90
9225;BME280;4647;48.072;11.616;2023-04-30T13:40:35;95353.66;;;15.63;48.65
9225;BME280;4647;48.072;11.616;2023-04-30T13:43:06;95353.06;;;15.81;48.32
9225;BME280;4647;48.072;11.616;2023-04-30T13:45:39;95345.56;;;16.28;47.52
9225;BME280;4647;48.072;11.616;2023-04-30T13:48:08;95355.59;;;16.53;47.47
9225;BME280;4647;48.072;11.616;2023-04-30T13:50:40;95342.31;;;16.43;46.86
9225;BME280;4647;48.072;11.616;2023-04-30T13:53:09;95351.69;;;16.33;47.55
9225;BME280;4647;48.072;11.616;2023-04-30T13:55:40;95341.41;;;16.46;46.68
9225;BME280;4647;48.072;11.616;2023-04-30T13:58:09;95343.81;;;16.66;46.14
9225;BME280;4647;48.072;11.616;2023-04-30T14:00:47;95347.00;;;17.26;45.82
9225;BME280;4647;48.072;11.616;2023-04-30T14:03:27;95335.81;;;16.49;46.36